createdAt,value
2018-08-17T00:00:52.310Z,43.11
2018-08-17T00:03:22.252Z,43.11
2018-08-17T00:05:52.118Z,43.20
2018-08-17T00:08:21.936Z,42.73
2018-08-17T00:10:52.202Z,42.02
2018-08-17T00:13:22.095Z,42.34
2018-08-17T00:15:51.998Z,42.16
2018-08-17T00:18:21.994Z,42.96
2018-08-17T00:20:51.964Z,43.08
2018-08-17T00:23:21.850Z,42.14
2018-08-17T00:25:51.742Z,41.91
2018-08-17T00:28:21.675Z,42.26
2018-08-17T00:30:51.532Z,41.71
2018-08-17T00:33:21.303Z,41.78
2018-08-17T00:35:51.212Z,42.28
2018-08-17T00:38:21.234Z,41.42
2018-08-17T00:40:51.902Z,42.06
2018-08-17T00:43:21.778Z,42.07
2018-08-17T00:45:51.681Z,42.10
2018-08-17T00:48:21.507Z,42.04
2018-08-17T00:50:52.125Z,42.12
2018-08-17T00:53:22.044Z,41.85
2018-08-17T00:55:51.986Z,42.64
2018-08-17T00:58:21.892Z,42.18
2018-08-17T01:00:52.223Z,43.01
2018-08-17T01:03:22.001Z,43.39
2018-08-17T01:05:51.788Z,42.74
2018-08-17T01:08:21.446Z,42.54
2018-08-17T01:10:51.344Z,41.67
2018-08-17T01:13:21.089Z,41.81
2018-08-17T01:15:50.905Z,41.39
2018-08-17T01:18:20.614Z,41.30
2018-08-17T01:20:50.627Z,40.13
2018-08-17T01:23:20.511Z,40.85
2018-08-17T01:25:50.243Z,40.01
2018-08-17T01:28:20.075Z,41.34
2018-08-17T01:30:49.808Z,41.06
2018-08-17T01:33:19.554Z,41.53
2018-08-17T01:35:49.220Z,41.43
2018-08-17T01:38:18.963Z,44.12
2018-08-17T01:40:48.883Z,43.41
2018-08-17T01:43:19.025Z,43.57
2018-08-17T01:45:48.909Z,43.27
2018-08-17T01:48:18.560Z,43.19
2018-08-17T01:50:48.276Z,43.80
2018-08-17T01:53:17.929Z,44.38
2018-08-17T01:55:47.721Z,44.79
2018-08-17T01:58:17.484Z,44.53
2018-08-17T02:00:47.195Z,46.27
2018-08-17T02:03:17.075Z,46.15
2018-08-17T02:05:46.959Z,45.19
2018-08-17T02:08:16.702Z,45.08
2018-08-17T02:10:46.480Z,44.27
2018-08-17T02:13:16.193Z,45.64
2018-08-17T02:15:46.035Z,47.01
2018-08-17T02:18:15.849Z,47.37
2018-08-17T02:20:45.583Z,46.75
2018-08-17T02:23:15.389Z,46.44
2018-08-17T02:25:45.116Z,46.07
2018-08-17T02:28:14.945Z,46.57
2018-08-17T02:30:44.713Z,48.46
2018-08-17T02:33:14.443Z,47.91
2018-08-17T02:35:44.246Z,48.04
2018-08-17T02:38:14.043Z,48.46
2018-08-17T02:40:43.800Z,48.24
2018-08-17T02:43:13.619Z,46.60
2018-08-17T02:45:43.753Z,46.45
2018-08-17T02:48:13.403Z,47.78
2018-08-17T02:50:43.155Z,48.03
2018-08-17T02:53:12.843Z,47.97
2018-08-17T02:55:42.518Z,47.63
2018-08-17T02:58:12.335Z,47.59
2018-08-17T03:00:42.116Z,46.32
2018-08-17T03:03:11.651Z,48.58
2018-08-17T03:05:41.386Z,48.85
2018-08-17T03:08:11.339Z,48.22
2018-08-17T03:10:41.101Z,49.38
2018-08-17T03:13:11.367Z,49.43
2018-08-17T03:15:41.864Z,49.27
2018-08-17T03:18:11.722Z,49.16
2018-08-17T03:20:42.026Z,49.57
2018-08-17T03:23:11.830Z,49.88
2018-08-17T03:25:41.661Z,48.36
2018-08-17T03:28:11.502Z,48.36
2018-08-17T03:30:41.198Z,49.61
2018-08-17T03:33:11.008Z,48.72
2018-08-17T03:35:40.770Z,48.34
2018-08-17T03:38:10.657Z,48.01
2018-08-17T03:40:40.417Z,46.64
2018-08-17T03:43:10.331Z,47.47
2018-08-17T03:45:40.068Z,47.05
2018-08-17T03:48:10.834Z,50.12
2018-08-17T03:50:41.083Z,47.40
2018-08-17T03:53:11.678Z,47.51
2018-08-17T03:55:42.324Z,47.54
2018-08-17T03:58:12.640Z,48.54
2018-08-17T04:00:43.418Z,47.01
2018-08-17T04:03:13.761Z,48.45
2018-08-17T04:05:44.164Z,48.42
2018-08-17T04:08:14.569Z,47.30
2018-08-17T04:10:44.987Z,48.91
2018-08-17T04:13:15.540Z,46.33
2018-08-17T04:15:45.600Z,46.95
2018-08-17T04:18:15.858Z,47.58
2018-08-17T04:20:46.698Z,47.98
2018-08-17T04:23:16.375Z,47.71
2018-08-17T04:25:46.099Z,47.50
2018-08-17T04:28:15.777Z,47.61
2018-08-17T04:30:45.477Z,46.45
2018-08-17T04:33:15.003Z,47.04
2018-08-17T04:35:44.791Z,45.48
2018-08-17T04:38:14.631Z,46.28
2018-08-17T04:40:44.340Z,47.08
2018-08-17T04:43:14.148Z,47.09
2018-08-17T04:45:43.834Z,45.64
2018-08-17T04:48:13.493Z,46.08
2018-08-17T04:50:43.170Z,46.25
2018-08-17T04:53:12.850Z,45.75
2018-08-17T04:55:42.474Z,45.17
2018-08-17T04:58:12.148Z,45.77
2018-08-17T05:00:41.933Z,44.71
2018-08-17T05:03:11.748Z,46.25
2018-08-17T05:05:41.572Z,45.51
2018-08-17T05:08:11.286Z,44.62
2018-08-17T05:10:41.055Z,44.80
2018-08-17T05:13:10.824Z,44.20
2018-08-17T05:15:40.649Z,44.08
2018-08-17T05:18:10.515Z,44.55
2018-08-17T05:20:40.208Z,43.35
2018-08-17T05:23:09.911Z,43.88
2018-08-17T05:25:39.606Z,44.40
2018-08-17T05:28:09.257Z,42.99
2018-08-17T05:30:38.855Z,43.89
2018-08-17T05:33:08.757Z,42.93
2018-08-17T05:35:38.304Z,42.85
2018-08-17T05:38:08.163Z,41.82
2018-08-17T05:40:38.490Z,42.01
2018-08-17T05:43:08.785Z,42.56
2018-08-17T05:45:39.347Z,41.84
2018-08-17T05:48:10.165Z,41.44
2018-08-17T05:50:41.087Z,41.21
2018-08-17T05:53:10.853Z,40.95
2018-08-17T05:55:40.656Z,41.95
2018-08-17T05:58:10.593Z,41.93
2018-08-17T06:00:40.850Z,41.28
2018-08-17T06:03:10.644Z,39.42
2018-08-17T06:05:40.516Z,40.48
2018-08-17T06:08:10.390Z,39.92
2018-08-17T06:10:40.151Z,38.94
2018-08-17T06:13:10.043Z,38.11
2018-08-17T06:15:39.870Z,38.12
2018-08-17T06:18:09.679Z,37.78
2018-08-17T06:20:39.761Z,37.03
2018-08-17T06:23:09.709Z,36.49
2018-08-17T06:25:39.627Z,36.89
2018-08-17T06:28:09.500Z,35.54
2018-08-17T06:30:39.539Z,34.44
2018-08-17T06:33:09.466Z,34.26
2018-08-17T06:35:39.274Z,34.39
2018-08-17T06:38:09.058Z,34.16
2018-08-17T06:40:38.889Z,34.41
2018-08-17T06:43:08.885Z,33.97
2018-08-17T06:45:38.684Z,34.29
2018-08-17T06:48:09.681Z,34.54
2018-08-17T06:50:40.167Z,32.81
2018-08-17T06:53:10.095Z,32.90
2018-08-17T06:55:40.592Z,32.95
2018-08-17T06:58:10.383Z,31.90
2018-08-17T07:00:40.124Z,31.58
2018-08-17T07:03:09.769Z,32.29
2018-08-17T07:05:39.504Z,32.76
2018-08-17T07:08:09.306Z,31.08
2018-08-17T07:10:39.186Z,30.95
2018-08-17T07:13:08.889Z,29.91
2018-08-17T07:15:38.780Z,29.59
2018-08-17T07:18:08.803Z,28.00
2018-08-17T07:20:38.557Z,27.33
2018-08-17T07:23:08.588Z,27.28
2018-08-17T07:25:38.424Z,25.33
2018-08-17T07:31:55.790Z,24.44
2018-08-17T07:34:25.560Z,25.33
2018-08-17T07:36:55.332Z,23.57
2018-08-17T07:39:24.997Z,23.38
2018-08-17T07:41:54.692Z,24.51
2018-08-17T07:44:24.445Z,24.30
2018-08-17T07:46:54.155Z,24.04
2018-08-17T07:49:24.044Z,22.33
2018-08-17T07:51:53.838Z,23.45
2018-08-17T07:54:23.844Z,23.54
2018-08-17T07:56:53.695Z,21.91
2018-08-17T07:59:23.421Z,22.29
2018-08-17T08:01:53.030Z,21.80
2018-08-17T08:04:22.583Z,22.19
2018-08-17T08:06:52.424Z,22.77
2018-08-17T08:09:22.204Z,21.88
2018-08-17T08:11:51.937Z,21.90
2018-08-17T08:14:21.640Z,20.33
2018-08-17T08:16:51.516Z,22.13
2018-08-17T08:19:21.353Z,21.66
2018-08-17T08:21:51.861Z,21.86
2018-08-17T08:24:21.472Z,21.26
2018-08-17T08:26:51.210Z,21.25
2018-08-17T08:29:20.997Z,21.66
2018-08-17T08:31:50.773Z,19.88
2018-08-17T08:34:20.504Z,19.28
2018-08-17T08:36:50.213Z,20.81
2018-08-17T08:39:20.010Z,20.05
2018-08-17T08:41:49.764Z,19.19
2018-08-17T08:44:19.527Z,19.88
2018-08-17T08:46:49.224Z,20.05
2018-08-17T08:49:18.927Z,18.99
2018-08-17T08:51:48.518Z,20.33
2018-08-17T08:54:18.141Z,21.84
2018-08-17T08:56:48.549Z,21.73
2018-08-17T08:59:18.253Z,20.60
2018-08-17T09:01:48.096Z,22.60
2018-08-17T09:04:17.786Z,21.53
2018-08-17T09:06:47.591Z,22.34
2018-08-17T09:09:17.349Z,21.70
2018-08-17T09:11:47.080Z,23.01
2018-08-17T09:14:16.775Z,23.07
2018-08-17T09:16:46.617Z,24.05
2018-08-17T09:19:16.444Z,24.15
2018-08-17T09:21:46.075Z,24.17
2018-08-17T09:24:15.877Z,23.67
2018-08-17T09:26:45.629Z,24.43
2018-08-17T09:29:15.380Z,25.56
2018-08-17T09:31:45.157Z,24.19
2018-08-17T09:34:14.975Z,25.03
2018-08-17T09:36:44.837Z,22.45
2018-08-17T09:39:14.253Z,21.69
2018-08-17T09:41:44.055Z,20.58
2018-08-17T09:44:13.847Z,19.24
2018-08-17T09:46:43.591Z,18.74
2018-08-17T09:49:13.485Z,18.63
2018-08-17T09:51:43.179Z,19.61
2018-08-17T09:54:12.889Z,18.24
2018-08-17T09:56:42.841Z,16.39
2018-08-17T09:59:12.620Z,16.67
2018-08-17T10:01:47.316Z,18.72
2018-08-17T10:04:22.052Z,17.49
2018-08-17T10:06:56.873Z,15.71
2018-08-17T10:10:30.495Z,16.60
2018-08-17T10:13:00.342Z,16.82
2018-08-17T10:15:30.067Z,15.94
2018-08-17T10:17:59.812Z,17.73
2018-08-17T10:20:29.345Z,15.53
2018-08-17T10:22:58.952Z,17.09
2018-08-17T10:25:28.593Z,16.89
2018-08-17T10:27:59.243Z,16.08
2018-08-17T10:30:29.095Z,15.70
2018-08-17T10:33:00.287Z,15.24
2018-08-17T10:35:31.299Z,16.34
2018-08-17T10:38:03.050Z,17.17
2018-08-17T10:40:33.130Z,16.03
2018-08-17T10:43:04.621Z,16.56
2018-08-17T10:45:34.745Z,16.32
2018-08-17T10:48:05.423Z,14.31
2018-08-17T10:50:35.803Z,15.08
2018-08-17T10:53:07.045Z,15.65
2018-08-17T10:55:42.831Z,15.36
2018-08-17T10:58:14.815Z,16.52
2018-08-17T11:00:44.872Z,16.69
2018-08-17T11:03:14.928Z,16.61
2018-08-17T11:05:44.941Z,17.56
2018-08-17T11:08:15.038Z,19.12
2018-08-17T11:10:44.985Z,18.63
2018-08-17T11:13:14.793Z,18.30
2018-08-17T11:15:45.162Z,16.91
2018-08-17T11:18:15.701Z,16.94
2018-08-17T11:20:45.536Z,16.22
2018-08-17T11:23:15.496Z,15.64
2018-08-17T11:25:45.379Z,15.31
2018-08-17T11:28:15.995Z,15.43
2018-08-17T11:30:46.020Z,18.16
2018-08-17T11:33:16.865Z,18.36
2018-08-17T11:35:47.284Z,18.36
2018-08-17T11:38:18.347Z,18.67
2018-08-17T11:40:48.240Z,18.24
2018-08-17T11:43:18.672Z,18.77
2018-08-17T11:45:48.982Z,19.22
2018-08-17T11:48:26.308Z,20.48
2018-08-17T11:50:57.280Z,18.58
2018-08-17T11:53:27.852Z,20.57
2018-08-17T11:55:58.121Z,22.72
2018-08-17T11:58:28.840Z,23.97
2018-08-17T12:00:59.553Z,24.80
2018-08-17T12:03:30.538Z,25.10
2018-08-17T12:06:00.569Z,25.15
2018-08-17T12:08:31.509Z,24.90
2018-08-17T12:11:05.373Z,25.03
2018-08-17T12:13:38.092Z,25.87
2018-08-17T12:16:11.716Z,26.18
2018-08-17T12:18:42.150Z,26.55
2018-08-17T12:21:12.003Z,27.10
2018-08-17T12:23:41.652Z,27.12
2018-08-17T12:26:11.288Z,27.05
2018-08-17T12:28:40.949Z,26.46
2018-08-17T12:31:10.686Z,26.99
2018-08-17T12:33:40.381Z,27.53
2018-08-17T12:36:10.124Z,26.81
2018-08-17T12:38:39.734Z,27.18
2018-08-17T12:41:09.674Z,25.17
2018-08-17T12:43:40.401Z,25.27
2018-08-17T12:46:10.182Z,25.27
2018-08-17T12:48:40.049Z,25.12
2018-08-17T12:51:09.906Z,25.49
2018-08-17T12:53:39.653Z,25.24
2018-08-17T12:56:09.400Z,25.67
2018-08-17T12:58:39.211Z,24.73
2018-08-17T13:01:09.004Z,23.98
2018-08-17T13:03:38.705Z,22.78
2018-08-17T13:06:08.460Z,20.75
2018-08-17T13:08:38.227Z,20.18
2018-08-17T13:11:08.049Z,18.42
2018-08-17T13:13:37.751Z,18.63
2018-08-17T13:16:08.732Z,18.62
2018-08-17T13:18:39.623Z,19.76
2018-08-17T13:21:09.505Z,17.55
2018-08-17T13:23:39.360Z,18.04
2018-08-17T13:26:09.226Z,19.37
2018-08-17T13:28:39.525Z,18.92
2018-08-17T13:31:09.237Z,17.47
2018-08-17T13:33:38.984Z,16.53
2018-08-17T13:36:09.813Z,17.89
2018-08-17T13:38:40.365Z,18.33
2018-08-17T13:41:10.101Z,17.16
2018-08-17T13:43:39.889Z,18.12
2018-08-17T13:46:10.637Z,18.23
2018-08-17T13:48:41.088Z,20.04
2018-08-17T13:51:11.043Z,18.62
2018-08-17T13:53:40.933Z,18.97
2018-08-17T13:56:10.800Z,19.07
2018-08-17T13:58:41.671Z,18.36
2018-08-17T14:01:11.472Z,18.75
2018-08-17T14:03:41.288Z,19.83
2018-08-17T14:06:10.972Z,19.07
2018-08-17T14:08:41.609Z,19.22
2018-08-17T14:11:11.257Z,20.33
2018-08-17T14:13:41.100Z,21.64
2018-08-17T14:16:10.915Z,22.37
2018-08-17T14:18:40.527Z,21.25
2018-08-17T14:21:10.298Z,20.69
2018-08-17T14:23:40.084Z,18.93
2018-08-17T14:26:09.872Z,17.32
2018-08-17T14:28:39.671Z,17.82
2018-08-17T14:31:09.378Z,18.29
2018-08-17T14:33:39.013Z,19.35
2018-08-17T14:36:09.018Z,20.61
2018-08-17T14:38:38.820Z,20.39
2018-08-17T14:41:08.646Z,19.55
2018-08-17T14:43:38.332Z,20.47
2018-08-17T14:46:07.899Z,20.57
2018-08-17T14:48:37.867Z,19.66
2018-08-17T14:51:07.714Z,19.77
2018-08-17T14:53:37.496Z,20.20
2018-08-17T14:56:07.640Z,20.94
2018-08-17T14:58:37.469Z,19.78
2018-08-17T15:01:07.506Z,20.19
2018-08-17T15:03:37.296Z,19.46
2018-08-17T15:06:07.386Z,20.18
2018-08-17T15:08:37.232Z,20.90
2018-08-17T15:11:07.016Z,20.82
2018-08-17T15:13:36.846Z,20.59
2018-08-17T15:16:06.493Z,20.57
2018-08-17T15:18:36.392Z,20.25
2018-08-17T15:21:06.175Z,20.97
2018-08-17T15:23:35.989Z,20.86
2018-08-17T15:26:05.621Z,21.91
2018-08-17T15:28:35.496Z,22.68
2018-08-17T15:31:05.426Z,24.38
2018-08-17T15:33:35.176Z,23.24
2018-08-17T15:36:05.184Z,22.87
2018-08-17T15:38:34.980Z,23.18
2018-08-17T15:41:04.700Z,22.44
2018-08-17T15:43:34.657Z,23.51
2018-08-17T15:46:04.531Z,24.23
2018-08-17T15:48:42.450Z,24.34
2018-08-17T15:51:13.549Z,24.42
2018-08-17T15:53:43.796Z,24.23
2018-08-17T15:56:14.200Z,25.30
2018-08-17T15:58:43.939Z,25.36
2018-08-17T16:01:14.140Z,25.64
2018-08-17T16:03:43.970Z,27.54
2018-08-17T16:06:13.879Z,27.47
2018-08-17T16:08:44.704Z,28.33
2018-08-17T16:11:14.603Z,26.87
2018-08-17T16:13:44.355Z,28.47
2018-08-17T16:16:14.058Z,28.53
2018-08-17T16:18:43.775Z,29.53
2018-08-17T16:21:13.425Z,29.17
2018-08-17T16:23:43.217Z,28.76
2018-08-17T16:26:13.111Z,30.81
2018-08-17T16:28:42.913Z,29.58
2018-08-17T16:31:12.575Z,27.92
2018-08-17T16:33:42.347Z,29.15
2018-08-17T16:36:12.185Z,28.16
2018-08-17T16:38:42.072Z,29.90
2018-08-17T16:41:11.726Z,29.99
2018-08-17T16:47:04.599Z,29.84
2018-08-17T16:49:34.364Z,30.99
2018-08-17T16:52:04.362Z,30.78
2018-08-17T16:54:34.174Z,29.55
2018-08-17T16:57:03.991Z,28.87
2018-08-17T16:59:33.648Z,29.69
2018-08-17T17:02:03.609Z,29.21
2018-08-17T17:04:42.211Z,29.03
2018-08-17T17:07:12.102Z,29.42
2018-08-17T17:09:41.993Z,31.54
2018-08-17T17:12:17.977Z,32.73
2018-08-17T17:14:48.465Z,35.20
2018-08-17T17:17:18.317Z,35.01
2018-08-17T17:19:48.149Z,35.32
2018-08-17T17:22:18.108Z,35.77
2018-08-17T17:24:47.857Z,34.77
2018-08-17T17:27:21.532Z,34.83
2018-08-17T17:29:51.385Z,36.21
2018-08-17T17:32:21.176Z,35.72
2018-08-17T17:34:51.037Z,34.22
2018-08-17T17:37:20.712Z,33.85
2018-08-17T17:39:50.549Z,34.89
2018-08-17T17:42:20.160Z,34.88
2018-08-17T17:44:49.948Z,34.48
2018-08-17T17:47:19.827Z,33.95
2018-08-17T17:49:49.606Z,35.55
2018-08-17T17:52:19.607Z,36.14
2018-08-17T17:54:49.387Z,36.67
2018-08-17T17:57:19.175Z,37.92
2018-08-17T17:59:53.955Z,36.96
2018-08-17T18:02:23.740Z,37.25
2018-08-17T18:04:54.012Z,35.68
2018-08-17T18:07:24.115Z,35.98
2018-08-17T18:09:53.739Z,36.07
2018-08-17T18:12:23.608Z,36.67
2018-08-17T18:14:53.297Z,36.27
2018-08-17T18:17:23.083Z,35.88
2018-08-17T18:19:55.484Z,36.51
2018-08-17T18:22:29.248Z,37.23
2018-08-17T18:25:04.864Z,37.24
2018-08-17T18:27:34.476Z,35.96
2018-08-17T18:30:04.398Z,35.67
2018-08-17T18:32:34.261Z,35.64
2018-08-17T18:35:05.172Z,36.39
2018-08-17T18:37:34.945Z,36.37
2018-08-17T18:40:04.851Z,37.79
2018-08-17T18:42:34.552Z,37.95
2018-08-17T18:45:04.298Z,38.74
2018-08-17T18:47:34.217Z,39.11
2018-08-17T18:50:04.066Z,39.44
2018-08-17T18:52:34.239Z,37.09
2018-08-17T18:55:04.166Z,36.09
2018-08-17T18:57:33.784Z,36.63
2018-08-17T19:00:03.537Z,37.54
2018-08-17T19:02:33.371Z,37.41
2018-08-17T19:05:02.980Z,37.57
2018-08-17T19:07:32.608Z,37.30
2018-08-17T19:10:02.307Z,38.72
2018-08-17T19:12:32.206Z,38.04
2018-08-17T19:15:02.164Z,36.76
2018-08-17T19:17:34.119Z,36.05
2018-08-17T19:20:03.782Z,37.09
2018-08-17T19:22:39.358Z,37.68
2018-08-17T19:25:11.625Z,38.13
2018-08-17T19:27:42.251Z,36.96
2018-08-17T19:30:27.676Z,37.52
2018-08-17T19:32:59.671Z,37.67
2018-08-17T19:36:33.924Z,38.50
2018-08-17T19:39:04.160Z,38.33
2018-08-17T19:41:33.961Z,37.99
2018-08-17T19:44:03.827Z,38.31
2018-08-17T19:46:33.541Z,38.23
2018-08-17T19:49:03.321Z,38.30
2018-08-17T19:51:33.092Z,37.72
2018-08-17T19:54:03.129Z,37.85
2018-08-17T19:56:32.849Z,38.32
2018-08-17T19:59:02.432Z,38.45
2018-08-17T20:01:32.148Z,40.32
2018-08-17T20:04:02.000Z,39.87
2018-08-17T20:06:31.730Z,38.96
2018-08-17T20:09:01.416Z,38.49
2018-08-17T20:11:31.105Z,38.57
2018-08-17T20:14:00.829Z,37.89
2018-08-17T20:16:30.935Z,38.94
2018-08-17T20:19:01.608Z,38.30
2018-08-17T20:21:31.487Z,38.53
2018-08-17T20:24:01.394Z,40.37
2018-08-17T20:26:32.446Z,40.27
2018-08-17T20:29:02.069Z,39.46
2018-08-17T20:31:32.047Z,39.71
2018-08-17T20:34:01.757Z,39.88
2018-08-17T20:36:31.521Z,42.16
2018-08-17T20:39:01.426Z,40.35
2018-08-17T20:41:31.814Z,40.20
2018-08-17T20:44:02.200Z,40.02
2018-08-17T20:46:32.003Z,40.29
2018-08-17T20:49:01.796Z,41.26
2018-08-17T20:51:32.155Z,41.16
2018-08-17T20:54:04.066Z,40.43
2018-08-17T20:56:34.249Z,44.07
2018-08-17T20:59:04.079Z,43.57
2018-08-17T21:01:33.844Z,44.52
2018-08-17T21:04:03.820Z,44.14
2018-08-17T21:06:33.434Z,43.55
2018-08-17T21:09:03.208Z,43.52
2018-08-17T21:11:32.979Z,42.96
2018-08-17T21:14:02.859Z,44.13
2018-08-17T21:16:32.576Z,42.92
2018-08-17T21:19:02.374Z,40.99
2018-08-17T21:21:32.249Z,42.31
2018-08-17T21:24:01.864Z,42.92
2018-08-17T21:26:33.301Z,41.88
2018-08-17T21:29:04.928Z,43.08
2018-08-17T21:31:34.597Z,42.55
2018-08-17T21:34:04.712Z,42.22
2018-08-17T21:36:34.347Z,41.24
2018-08-17T21:39:13.989Z,45.27
2018-08-17T21:41:45.878Z,45.12
2018-08-17T21:44:18.825Z,44.72
2018-08-17T21:47:05.004Z,42.97
2018-08-17T21:49:35.778Z,43.52
2018-08-17T21:52:07.385Z,44.05
2018-08-17T21:54:37.940Z,44.34
2018-08-17T21:57:07.870Z,43.93
2018-08-17T21:59:47.796Z,44.25
2018-08-17T22:02:18.286Z,45.01
2018-08-17T22:04:48.711Z,44.90
2018-08-17T22:07:23.401Z,45.83
2018-08-17T22:09:54.513Z,44.91
2018-08-17T22:12:24.391Z,44.46
2018-08-17T22:14:55.353Z,44.90
2018-08-17T22:17:33.893Z,45.17
2018-08-17T22:20:04.024Z,45.35
2018-08-17T22:22:33.844Z,43.92
2018-08-17T22:25:05.838Z,42.33
2018-08-17T22:27:35.635Z,42.24
2018-08-17T22:30:06.689Z,42.41
2018-08-17T22:32:36.307Z,44.69
2018-08-17T22:35:06.205Z,44.10
2018-08-17T22:37:35.902Z,44.90
2018-08-17T22:40:05.987Z,44.67
2018-08-17T22:42:37.036Z,43.46
2018-08-17T22:45:08.045Z,44.44
2018-08-17T22:47:37.953Z,44.91
2018-08-17T22:50:08.109Z,44.63
2018-08-17T22:52:37.824Z,45.38
2018-08-17T22:55:09.681Z,47.02
2018-08-17T22:57:39.736Z,48.05
2018-08-17T23:00:19.383Z,46.19
2018-08-17T23:02:50.516Z,45.74
2018-08-17T23:05:33.873Z,45.09
2018-08-17T23:08:03.688Z,46.16
2018-08-17T23:10:33.517Z,45.30
2018-08-17T23:13:03.325Z,45.57
2018-08-17T23:15:33.076Z,44.66
2018-08-17T23:18:02.873Z,44.02
2018-08-17T23:20:35.522Z,44.92
2018-08-17T23:23:06.513Z,45.36
2018-08-17T23:25:37.241Z,46.87
2018-08-17T23:28:07.131Z,47.95
2018-08-17T23:30:36.941Z,48.32
2018-08-17T23:33:06.837Z,46.20
2018-08-17T23:35:37.944Z,46.07
2018-08-17T23:38:07.639Z,45.59
2018-08-17T23:40:37.435Z,47.30
2018-08-17T23:43:07.158Z,46.29
2018-08-17T23:47:01.578Z,45.68
2018-08-17T23:49:31.414Z,46.03
2018-08-17T23:52:01.086Z,45.46
2018-08-17T23:54:30.912Z,46.10
2018-08-17T23:57:00.697Z,45.65
2018-08-17T23:59:30.537Z,45.53
